Time;durP1;ratioP1;P1;durP2;ratioP2;P2;SDS_P1;SDS_P2;PMS_P1;PMS_P2;Temp;Humidity;BMP_temperature;BMP_pressure;BME280_temperature;BME280_humidity;BME280_pressure;Samples;Min_cycle;Max_cycle;Signal;HPM_P1;HPM_P2
2021/12/27 00:00:10;;;;;;;143.83;82.17;;;;;;;4.50;93.92;99324.66;5092321;28;20248;-75
2021/12/27 00:02:37;;;;;;;147.93;81.37;;;;;;;4.36;93.21;99321.84;5092684;28;20198;-76
2021/12/27 00:05:05;;;;;;;141.10;81.27;;;;;;;4.32;94.08;99337.13;5092757;28;20195;-75
2021/12/27 00:07:32;;;;;;;143.57;79.67;;;;;;;4.24;94.28;99318.69;5092192;28;20731;-75
2021/12/27 00:10:01;;;;;;;146.67;79.10;;;;;;;4.32;94.98;99318.72;5092891;28;20291;-75
2021/12/27 00:12:28;;;;;;;157.67;83.23;;;;;;;4.35;94.36;99336.81;5092447;28;20233;-76
2021/12/27 00:14:55;;;;;;;145.10;81.40;;;;;;;4.32;93.56;99331.03;5092035;28;20259;-76
2021/12/27 00:17:21;;;;;;;143.97;79.00;;;;;;;4.16;93.54;99321.28;5091675;28;20659;-75
2021/12/27 00:19:48;;;;;;;139.57;79.77;;;;;;;4.10;94.72;99329.84;5092862;28;20191;-75
2021/12/27 00:22:15;;;;;;;147.77;79.80;;;;;;;3.97;94.50;99332.06;5092120;28;20249;-73
2021/12/27 00:24:46;;;;;;;158.67;81.90;;;;;;;3.97;95.94;99326.00;5092566;28;20195;-74
2021/12/27 00:27:15;;;;;;;134.03;75.03;;;;;;;3.92;96.15;99329.09;5092375;28;20218;-74
2021/12/27 00:29:42;;;;;;;141.20;80.37;;;;;;;3.81;96.19;99321.50;5092205;28;20516;-75
2021/12/27 00:32:08;;;;;;;133.67;75.90;;;;;;;3.83;96.26;99330.03;5092297;28;20441;-74
2021/12/27 00:34:36;;;;;;;141.40;79.60;;;;;;;3.73;96.33;99318.84;5092440;28;20637;-75
2021/12/27 00:37:03;;;;;;;139.90;79.43;;;;;;;3.76;96.45;99329.00;5092513;28;20440;-74
2021/12/27 00:39:30;;;;;;;148.03;78.77;;;;;;;3.65;97.04;99316.19;5092292;28;20212;-74
2021/12/27 00:41:56;;;;;;;142.23;75.37;;;;;;;3.77;97.47;99317.56;5093656;28;20437;-74
2021/12/27 00:44:24;;;;;;;140.17;76.10;;;;;;;3.87;96.35;99310.34;5093642;28;21002;-74
2021/12/27 00:46:51;;;;;;;143.70;78.70;;;;;;;3.90;96.01;99299.53;5093382;28;20445;-74
2021/12/27 00:49:18;;;;;;;129.17;72.77;;;;;;;3.99;94.97;99301.22;5091826;28;20210;-74
2021/12/27 00:51:45;;;;;;;133.93;76.00;;;;;;;4.05;95.31;99300.56;5091706;28;20433;-73
2021/12/27 00:54:12;;;;;;;129.03;75.37;;;;;;;4.06;94.62;99294.34;5091867;28;20468;-74
2021/12/27 00:56:39;;;;;;;133.23;73.13;;;;;;;4.01;95.06;99319.44;5091889;28;20191;-74
2021/12/27 00:59:06;;;;;;;121.33;69.93;;;;;;;4.06;95.15;99325.88;5092068;28;20429;-74
2021/12/27 01:01:34;;;;;;;131.07;73.57;;;;;;;4.13;94.98;99308.47;5092007;28;20273;-74
2021/12/27 01:04:01;;;;;;;122.27;70.37;;;;;;;4.17;94.76;99296.66;5092494;28;20252;-74
2021/12/27 01:06:28;;;;;;;119.43;71.27;;;;;;;4.23;94.63;99287.31;5091675;28;20441;-74
2021/12/27 01:08:55;;;;;;;117.97;68.53;;;;;;;4.12;93.58;99285.81;5091542;28;20554;-73
2021/12/27 01:11:27;;;;;;;122.17;69.83;;;;;;;4.12;95.15;99308.63;5092087;28;20188;-74
2021/12/27 01:14:04;;;;;;;125.07;69.13;;;;;;;4.15;94.83;99303.06;5091866;28;20210;-74
2021/12/27 01:16:31;;;;;;;123.37;69.73;;;;;;;4.23;94.47;99306.53;5091702;28;20194;-75
2021/12/27 01:18:59;;;;;;;133.87;71.77;;;;;;;4.25;94.61;99299.31;5091707;28;20196;-75
2021/12/27 01:21:27;;;;;;;129.50;69.07;;;;;;;4.26;94.48;99303.59;5092002;28;20248;-74
2021/12/27 01:23:55;;;;;;;114.20;66.97;;;;;;;4.19;93.90;99310.47;5092053;28;20202;-76
2021/12/27 01:26:22;;;;;;;123.23;67.63;;;;;;;4.20;94.25;99306.84;5092085;28;20187;-75
2021/12/27 01:28:49;;;;;;;122.53;68.03;;;;;;;4.27;94.12;99297.34;5091523;28;20654;-78
2021/12/27 01:31:16;;;;;;;118.07;66.27;;;;;;;4.32;93.62;99289.78;5094452;28;20739;-79
2021/12/27 01:33:44;;;;;;;115.50;64.67;;;;;;;4.31;93.50;99303.94;5095548;28;20218;-76
2021/12/27 01:36:13;;;;;;;117.53;65.10;;;;;;;4.37;94.40;99305.09;5095056;28;20704;-75
2021/12/27 01:38:42;;;;;;;115.17;68.73;;;;;;;4.31;94.30;99314.44;5094848;28;20250;-75
2021/12/27 01:41:11;;;;;;;105.53;60.63;;;;;;;4.26;94.82;99294.88;5094946;28;20195;-75
2021/12/27 01:43:40;;;;;;;116.00;65.50;;;;;;;4.27;95.18;99292.09;5095284;28;20472;-76
2021/12/27 01:46:08;;;;;;;118.53;64.53;;;;;;;4.29;94.83;99290.13;5094907;28;20655;-75
2021/12/27 01:48:38;;;;;;;121.93;65.43;;;;;;;4.30;94.81;99273.34;5094920;28;20663;-74
2021/12/27 01:51:07;;;;;;;121.53;64.57;;;;;;;4.11;94.73;99270.19;5094968;28;20202;-74
2021/12/27 01:53:38;;;;;;;121.53;64.07;;;;;;;4.11;96.41;99271.03;5095233;28;20222;-74
2021/12/27 01:56:06;;;;;;;105.87;63.13;;;;;;;4.20;96.30;99272.69;5094663;28;20179;-74
2021/12/27 01:58:34;;;;;;;118.27;64.33;;;;;;;4.30;95.42;99275.97;5094489;28;20260;-73
2021/12/27 02:01:03;;;;;;;110.57;61.87;;;;;;;4.29;95.42;99290.13;5095409;28;20197;-74
2021/12/27 02:03:33;;;;;;;109.27;62.83;;;;;;;4.28;94.68;99285.84;5094517;28;20441;-74
2021/12/27 02:06:00;;;;;;;111.17;61.77;;;;;;;4.25;93.93;99280.91;5094476;28;20654;-74
2021/12/27 02:08:29;;;;;;;109.33;63.40;;;;;;;4.26;94.68;99279.09;5095519;28;20191;-74
2021/12/27 02:10:57;;;;;;;114.03;62.07;;;;;;;4.18;94.45;99261.53;5094213;28;20765;-76
2021/12/27 02:13:24;;;;;;;117.60;63.63;;;;;;;4.17;94.53;99280.88;5094521;28;20215;-74
2021/12/27 02:15:51;;;;;;;109.17;61.23;;;;;;;4.12;94.59;99277.91;5094659;28;20194;-75
2021/12/27 02:18:18;;;;;;;113.60;61.70;;;;;;;3.92;94.39;99258.16;5094856;28;20186;-77
2021/12/27 02:20:46;;;;;;;114.20;61.13;;;;;;;4.02;95.29;99266.75;5094557;28;20187;-75
2021/12/27 02:23:16;;;;;;;110.20;61.97;;;;;;;4.06;95.21;99265.44;5094520;28;20195;-76
2021/12/27 02:25:45;;;;;;;120.83;65.33;;;;;;;4.06;94.59;99264.59;5094848;28;20270;-76
2021/12/27 02:28:13;;;;;;;117.07;63.23;;;;;;;3.93;94.88;99248.47;5094537;28;20191;-75
2021/12/27 02:30:41;;;;;;;114.67;61.20;;;;;;;3.96;95.43;99261.31;5095118;28;20244;-75
2021/12/27 02:33:09;;;;;;;122.83;65.97;;;;;;;3.95;94.71;99249.13;5094479;28;20233;-75
2021/12/27 02:35:38;;;;;;;110.80;62.60;;;;;;;3.83;95.11;99245.16;5094690;28;20190;-76
2021/12/27 02:38:09;;;;;;;105.73;60.43;;;;;;;3.85;95.20;99245.81;5093960;28;20742;-77
2021/12/27 02:40:37;;;;;;;112.37;60.90;;;;;;;3.78;95.05;99232.50;5093811;28;20426;-77
2021/12/27 02:43:06;;;;;;;105.93;61.00;;;;;;;3.82;94.67;99249.59;5094039;28;20188;-77
2021/12/27 02:45:35;;;;;;;110.03;59.70;;;;;;;3.69;95.72;99233.47;5093877;28;20437;-76
2021/12/27 02:48:03;;;;;;;98.17;58.40;;;;;;;3.66;95.16;99249.53;5093479;28;20502;-76
2021/12/27 02:50:30;;;;;;;107.47;58.40;;;;;;;3.74;95.62;99251.38;5093628;28;20830;-76
2021/12/27 02:52:57;;;;;;;104.67;59.47;;;;;;;3.67;94.56;99250.34;5093906;28;20850;-75
2021/12/27 02:55:25;;;;;;;97.00;55.80;;;;;;;3.51;95.74;99239.81;5093852;28;20437;-75
2021/12/27 02:57:52;;;;;;;101.93;58.77;;;;;;;3.66;95.32;99244.28;5093885;28;20491;-76
2021/12/27 03:00:22;;;;;;;110.57;61.00;;;;;;;3.71;94.99;99244.63;5093230;28;20453;-75
2021/12/27 03:02:50;;;;;;;97.07;57.03;;;;;;;3.63;94.61;99252.47;5093601;28;20523;-76
2021/12/27 03:05:19;;;;;;;98.57;55.97;;;;;;;3.64;95.40;99237.56;5093600;28;20255;-75
2021/12/27 03:07:47;;;;;;;93.53;55.80;;;;;;;3.68;94.89;99242.31;5093493;28;20240;-75
2021/12/27 03:10:15;;;;;;;104.63;56.30;;;;;;;3.62;95.61;99242.97;5093433;28;20284;-75
2021/12/27 03:12:45;;;;;;;99.30;56.00;;;;;;;3.55;95.24;99241.94;5093512;28;20514;-74
2021/12/27 03:15:14;;;;;;;101.07;56.27;;;;;;;3.60;96.30;99238.84;5092982;28;20472;-74
2021/12/27 03:17:43;;;;;;;92.90;55.30;;;;;;;3.60;96.84;99239.66;5093116;28;20956;-74
2021/12/27 03:20:12;;;;;;;100.43;56.97;;;;;;;3.68;96.54;99237.06;5093643;28;20441;-74
2021/12/27 03:22:40;;;;;;;104.07;58.67;;;;;;;3.76;95.55;99249.41;5093051;28;20610;-76
2021/12/27 03:25:09;;;;;;;106.37;57.67;;;;;;;3.66;95.28;99244.28;5092958;28;20472;-75
2021/12/27 03:27:35;;;;;;;102.77;57.10;;;;;;;3.73;96.13;99254.97;5092873;28;20256;-75
2021/12/27 03:30:05;;;;;;;99.23;54.87;;;;;;;3.67;95.34;99251.19;5094060;28;20437;-75
2021/12/27 03:32:33;;;;;;;99.20;57.60;;;;;;;3.73;96.30;99250.56;5093943;28;20433;-75
2021/12/27 03:35:08;;;;;;;102.17;57.50;;;;;;;3.77;95.65;99244.00;5093782;28;20473;-76
2021/12/27 03:37:36;;;;;;;100.33;56.57;;;;;;;3.82;95.26;99249.59;5092756;28;20433;-75
2021/12/27 03:40:04;;;;;;;105.80;58.93;;;;;;;3.68;94.19;99244.94;5093311;28;20191;-75
2021/12/27 03:42:31;;;;;;;108.03;60.33;;;;;;;3.62;95.06;99245.59;5093468;28;20441;-75
2021/12/27 03:44:57;;;;;;;103.40;61.17;;;;;;;3.49;94.65;99247.84;5092925;28;20191;-76
2021/12/27 03:47:26;;;;;;;109.37;60.17;;;;;;;3.39;95.30;99252.34;5093158;28;20441;-75
2021/12/27 03:49:52;;;;;;;107.03;63.90;;;;;;;3.37;95.75;99259.59;5092534;28;20432;-75
2021/12/27 03:52:19;;;;;;;118.27;65.97;;;;;;;3.27;95.66;99256.22;5091916;28;20446;-75
2021/12/27 03:54:46;;;;;;;114.47;63.33;;;;;;;3.17;96.70;99252.91;5092697;28;20477;-75
2021/12/27 03:57:14;;;;;;;111.23;64.53;;;;;;;3.24;96.84;99261.81;5092321;28;20432;-75
2021/12/27 03:59:53;;;;;;;117.23;63.97;;;;;;;3.03;97.72;99261.31;5092429;28;20445;-75
2021/12/27 04:02:19;;;;;;;105.33;60.13;;;;;;;3.15;98.22;99267.16;5093498;28;20521;-75
2021/12/27 04:04:48;;;;;;;108.37;62.10;;;;;;;3.26;97.47;99267.72;5092373;28;21013;-78
2021/12/27 04:07:14;;;;;;;112.87;61.90;;;;;;;3.32;97.14;99269.72;5092244;28;20490;-75
2021/12/27 04:09:42;;;;;;;116.27;64.30;;;;;;;3.29;97.31;99256.06;5092496;28;20485;-75
2021/12/27 04:12:10;;;;;;;109.83;64.40;;;;;;;3.36;97.66;99252.69;5092233;28;21128;-76
2021/12/27 04:14:37;;;;;;;110.87;60.57;;;;;;;3.48;96.98;99256.66;5092649;28;20484;-76
2021/12/27 04:17:04;;;;;;;107.77;62.17;;;;;;;3.54;96.02;99252.59;5092173;28;20501;-75
2021/12/27 04:19:31;;;;;;;103.53;59.73;;;;;;;3.40;95.83;99261.06;5092104;28;20490;-75
2021/12/27 04:21:59;;;;;;;97.97;61.17;;;;;;;3.49;96.76;99268.00;5092417;28;20620;-75
2021/12/27 04:24:26;;;;;;;103.60;58.47;;;;;;;3.53;96.30;99269.34;5092015;28;20245;-75
2021/12/27 04:26:52;;;;;;;112.87;59.37;;;;;;;3.61;96.45;99257.06;5092328;28;20616;-75
2021/12/27 04:29:19;;;;;;;100.23;59.63;;;;;;;3.66;95.78;99259.22;5092241;28;20494;-75
2021/12/27 04:31:46;;;;;;;98.80;56.97;;;;;;;3.69;95.75;99254.47;5091911;28;20436;-75
2021/12/27 04:34:12;;;;;;;107.23;57.83;;;;;;;3.74;96.95;99254.81;5092196;28;20644;-76
2021/12/27 04:36:39;;;;;;;97.17;57.63;;;;;;;3.77;96.25;99246.63;5091914;28;20445;-76
2021/12/27 04:39:08;;;;;;;93.07;55.90;;;;;;;3.79;95.83;99234.16;5091796;28;20578;-76
2021/12/27 04:41:36;;;;;;;92.77;55.70;;;;;;;3.71;95.23;99238.53;5091884;28;20425;-76
2021/12/27 04:44:04;;;;;;;98.97;56.37;;;;;;;3.73;96.26;99231.34;5092651;28;20815;-76
2021/12/27 04:46:31;;;;;;;99.97;56.43;;;;;;;3.83;96.34;99232.84;5091748;28;20437;-76
2021/12/27 04:48:58;;;;;;;95.57;53.97;;;;;;;3.92;96.46;99233.72;5091883;28;20498;-77
2021/12/27 04:51:24;;;;;;;88.33;52.97;;;;;;;3.89;95.55;99228.75;5091715;28;20498;-76
2021/12/27 04:53:52;;;;;;;94.07;55.20;;;;;;;3.94;95.68;99229.09;5091967;28;20518;-76
2021/12/27 04:56:21;;;;;;;97.57;56.60;;;;;;;3.92;95.29;99229.25;5091796;28;20256;-75
2021/12/27 04:58:47;;;;;;;98.90;57.30;;;;;;;3.82;95.81;99239.09;5092056;28;20256;-76
2021/12/27 05:01:14;;;;;;;93.53;53.03;;;;;;;3.66;96.09;99230.31;5091832;28;20206;-75
2021/12/27 05:03:41;;;;;;;96.67;54.07;;;;;;;3.70;96.87;99229.84;5092023;28;20433;-76
2021/12/27 05:06:08;;;;;;;95.10;55.77;;;;;;;3.53;96.92;99233.41;5096402;28;20494;-76
2021/12/27 05:08:35;;;;;;;102.17;56.63;;;;;;;3.53;97.11;99228.16;5096468;28;20195;-76
2021/12/27 05:11:02;;;;;;;96.90;56.10;;;;;;;3.60;97.17;99237.03;5095874;28;20514;-77
2021/12/27 05:13:32;;;;;;;104.20;55.43;;;;;;;3.52;96.73;99231.75;5095871;28;20445;-76
2021/12/27 05:16:00;;;;;;;96.73;58.23;;;;;;;3.52;97.23;99247.50;5095540;28;20464;-76
2021/12/27 05:18:27;;;;;;;105.33;56.83;;;;;;;3.62;98.31;99242.13;5095441;28;20441;-76
2021/12/27 05:20:54;;;;;;;124.00;63.10;;;;;;;3.72;98.39;99250.72;5095656;28;20443;-75
2021/12/27 05:23:21;;;;;;;137.37;70.37;;;;;;;3.68;97.46;99252.81;5095648;28;20501;-76
2021/12/27 05:25:48;;;;;;;144.57;76.03;;;;;;;3.79;97.72;99249.06;5095848;28;20494;-74
2021/12/27 05:28:15;;;;;;;147.53;71.53;;;;;;;3.80;97.42;99264.69;5096366;28;20433;-75
2021/12/27 05:30:47;;;;;;;129.80;69.37;;;;;;;3.90;97.37;99257.50;5094906;28;20195;-75
2021/12/27 05:33:15;;;;;;;126.33;63.57;;;;;;;3.98;96.64;99260.16;5096291;28;20207;-76
2021/12/27 05:35:41;;;;;;;110.07;61.87;;;;;;;4.06;96.10;99261.97;5095082;28;20261;-75
2021/12/27 05:38:08;;;;;;;130.30;70.70;;;;;;;4.16;95.56;99268.72;5095567;28;20195;-75
2021/12/27 05:40:35;;;;;;;123.23;66.90;;;;;;;4.15;94.81;99255.75;5095121;28;20259;-75
2021/12/27 05:43:02;;;;;;;118.33;65.83;;;;;;;4.11;94.80;99265.78;5095242;28;20252;-76
2021/12/27 05:45:29;;;;;;;108.10;59.50;;;;;;;4.08;95.37;99260.81;5094895;28;20199;-76
2021/12/27 05:47:57;;;;;;;110.90;62.90;;;;;;;4.07;95.51;99267.06;5095089;28;20195;-75
2021/12/27 05:50:24;;;;;;;110.27;62.80;;;;;;;4.15;95.95;99256.59;5095108;28;20252;-75
2021/12/27 05:52:50;;;;;;;110.67;61.40;;;;;;;4.18;95.06;99264.16;5094929;28;20199;-77
2021/12/27 05:55:17;;;;;;;106.53;60.00;;;;;;;4.20;95.17;99263.97;5094654;28;20264;-78
2021/12/27 05:57:44;;;;;;;103.93;58.77;;;;;;;4.21;95.14;99263.81;5095825;28;20608;-76
2021/12/27 06:00:13;;;;;;;96.67;57.40;;;;;;;4.26;95.44;99268.59;5095489;28;20441;-76
2021/12/27 06:02:40;;;;;;;106.17;59.93;;;;;;;4.26;94.85;99264.16;5094617;28;20728;-78
2021/12/27 06:05:08;;;;;;;97.77;58.60;;;;;;;4.29;95.29;99260.41;5094448;28;20499;-73
2021/12/27 06:07:35;;;;;;;101.60;58.97;;;;;;;4.38;95.10;99248.91;5083900;28;20659;-78
2021/12/27 06:10:02;;;;;;;101.30;59.43;;;;;;;4.46;94.88;99248.91;5084482;28;20224;-75
2021/12/27 06:12:28;;;;;;;97.73;56.83;;;;;;;4.39;93.59;99248.75;5082653;28;20737;-75
2021/12/27 06:14:55;;;;;;;94.67;57.73;;;;;;;4.43;93.85;99242.16;5084137;28;20272;-75
2021/12/27 06:17:22;;;;;;;98.27;58.10;;;;;;;4.55;94.39;99254.00;5084296;28;20188;-76
2021/12/27 06:19:48;;;;;;;96.50;55.63;;;;;;;4.65;94.60;99262.56;5082397;28;20659;-78
2021/12/27 06:22:17;;;;;;;101.70;56.60;;;;;;;4.72;94.05;99242.50;5084012;28;20191;-84
2021/12/27 06:24:44;;;;;;;96.07;54.70;;;;;;;4.68;93.64;99238.56;5084451;28;20253;-83
2021/12/27 06:27:10;;;;;;;100.93;56.10;;;;;;;4.78;93.92;99247.09;5076285;28;20261;-75
2021/12/27 06:29:37;;;;;;;100.93;57.80;;;;;;;4.88;92.84;99260.91;5077305;28;20213;-74
2021/12/27 06:32:05;;;;;;;94.77;55.73;;;;;;;4.99;93.05;99254.50;5084033;28;20229;-79
2021/12/27 06:34:31;;;;;;;97.77;57.30;;;;;;;5.12;93.36;99253.00;5083386;28;20242;-81
2021/12/27 06:36:58;;;;;;;93.50;56.50;;;;;;;5.26;92.46;99275.16;5082055;28;20191;-73
2021/12/27 06:39:26;;;;;;;87.33;54.50;;;;;;;5.32;91.92;99270.03;5093836;28;20187;-74
2021/12/27 06:41:53;;;;;;;97.70;55.10;;;;;;;5.28;91.29;99254.75;5080408;28;20253;-73
2021/12/27 06:44:19;;;;;;;85.30;52.20;;;;;;;5.39;92.18;99254.38;5073620;28;20196;-75
2021/12/27 06:46:46;;;;;;;94.77;55.47;;;;;;;5.53;92.19;99258.97;5073836;28;20348;-73
2021/12/27 06:49:13;;;;;;;92.33;54.00;;;;;;;5.67;92.09;99259.06;5076695;28;20238;-76
2021/12/27 06:51:39;;;;;;;86.13;54.40;;;;;;;5.82;91.53;99259.22;5093829;28;20195;-75
2021/12/27 06:54:06;;;;;;;89.73;55.33;;;;;;;5.87;89.44;99261.34;5093448;28;20232;-72
2021/12/27 06:56:34;;;;;;;91.73;53.07;;;;;;;5.87;89.59;99258.69;5093516;28;20223;-73
2021/12/27 06:59:02;;;;;;;88.60;53.30;;;;;;;5.95;89.89;99266.56;5093694;28;20318;-72
2021/12/27 07:01:29;;;;;;;91.60;54.53;;;;;;;6.09;89.48;99260.56;5093088;28;20229;-74
2021/12/27 07:03:55;;;;;;;99.53;57.07;;;;;;;6.17;89.18;99245.53;5093680;28;20196;-73
2021/12/27 07:06:23;;;;;;;95.23;56.10;;;;;;;6.26;86.99;99243.63;5088915;28;20196;-75
2021/12/27 07:08:49;;;;;;;82.50;52.23;;;;;;;6.38;88.05;99243.06;5072377;28;20569;-76
2021/12/27 07:11:16;;;;;;;93.87;56.63;;;;;;;6.64;90.83;99253.25;5073717;28;20187;-80
2021/12/27 07:13:44;;;;;;;87.80;52.33;;;;;;;6.75;87.67;99256.31;5072812;28;20197;-78
2021/12/27 07:16:11;;;;;;;89.70;52.50;;;;;;;6.69;85.07;99257.00;5072844;28;20451;-83
2021/12/27 07:18:37;;;;;;;87.00;50.70;;;;;;;6.65;85.61;99262.84;5072952;28;20257;-78
2021/12/27 07:21:04;;;;;;;89.17;51.60;;;;;;;6.72;85.88;99261.94;5073104;28;20197;-74
2021/12/27 07:23:31;;;;;;;84.07;50.03;;;;;;;6.83;85.67;99260.69;5072822;28;20625;-77
2021/12/27 07:25:58;;;;;;;85.00;51.43;;;;;;;6.91;84.88;99265.91;5080091;28;20196;-76
2021/12/27 07:28:24;;;;;;;88.17;54.50;;;;;;;6.94;84.45;99270.84;5079174;28;20192;-73
2021/12/27 07:30:53;;;;;;;84.63;54.23;;;;;;;7.02;84.58;99289.25;5073257;28;20252;-73
2021/12/27 07:33:20;;;;;;;95.67;54.67;;;;;;;6.91;83.48;99279.09;5072903;28;20192;-75
2021/12/27 07:35:47;;;;;;;86.40;54.33;;;;;;;6.98;84.39;99272.13;5072676;28;20219;-75
2021/12/27 07:38:14;;;;;;;92.87;54.73;;;;;;;6.90;83.60;99266.91;5072678;28;20204;-72
2021/12/27 07:40:41;;;;;;;89.30;54.73;;;;;;;6.90;84.12;99269.56;5078426;28;20191;-74
2021/12/27 07:43:08;;;;;;;92.80;53.73;;;;;;;6.79;83.50;99278.72;5092438;28;20191;-76
2021/12/27 07:45:35;;;;;;;101.70;55.30;;;;;;;6.76;84.45;99272.94;5092202;28;20260;-74
2021/12/27 07:48:07;;;;;;;91.23;54.17;;;;;;;6.71;84.66;99236.56;5090110;28;20195;-74
2021/12/27 07:50:34;;;;;;;85.27;54.43;;;;;;;6.89;83.77;99258.16;5080832;28;20180;-76
2021/12/27 07:53:01;;;;;;;87.07;52.83;;;;;;;6.92;83.38;99283.38;5082016;28;20191;-72
2021/12/27 07:55:29;;;;;;;98.57;57.77;;;;;;;6.59;84.58;99260.88;5092355;28;20648;-75
2021/12/27 07:57:55;;;;;;;100.37;56.60;;;;;;;6.54;86.09;99276.44;5076949;28;20202;-75
2021/12/27 08:00:22;;;;;;;100.53;62.20;;;;;;;6.56;86.29;99287.63;5071884;28;20196;-73
2021/12/27 08:02:49;;;;;;;103.40;63.97;;;;;;;6.40;86.64;99253.44;5072074;28;20197;-75
2021/12/27 08:05:18;;;;;;;109.13;67.53;;;;;;;6.38;87.61;99252.78;5076460;28;20190;-75
2021/12/27 08:07:45;;;;;;;115.27;68.90;;;;;;;6.55;87.50;99255.16;5092287;28;20188;-73
2021/12/27 08:10:14;;;;;;;110.77;68.20;;;;;;;6.63;86.42;99259.53;5091309;28;20230;-74
2021/12/27 08:12:42;;;;;;;119.43;68.30;;;;;;;6.78;86.73;99263.06;5090794;28;20248;-77
2021/12/27 08:15:11;;;;;;;115.30;69.37;;;;;;;6.65;86.45;99250.44;5092259;28;20273;-74
2021/12/27 08:17:38;;;;;;;110.17;68.33;;;;;;;6.59;86.93;99256.44;5092007;28;20191;-74
2021/12/27 08:20:07;;;;;;;119.30;69.57;;;;;;;6.53;86.65;99257.13;5092023;28;20664;-79
2021/12/27 08:22:35;;;;;;;109.47;67.23;;;;;;;6.45;86.71;99237.91;5085616;28;20228;-69
2021/12/27 08:25:02;;;;;;;105.80;65.33;;;;;;;6.43;87.26;99242.53;5076744;28;20637;-69
2021/12/27 08:27:30;;;;;;;108.33;65.50;;;;;;;6.57;86.65;99260.25;5071126;28;20196;-69
2021/12/27 08:29:58;;;;;;;107.97;67.07;;;;;;;6.51;86.59;99237.19;5070745;28;20217;-72
2021/12/27 08:32:25;;;;;;;112.77;67.00;;;;;;;6.62;86.73;99247.34;5071494;28;20194;-72
2021/12/27 08:34:51;;;;;;;113.60;68.07;;;;;;;6.64;86.37;99250.63;5070564;28;20203;-72
2021/12/27 08:37:18;;;;;;;111.70;67.47;;;;;;;6.67;87.28;99242.34;5071953;28;20202;-69
2021/12/27 08:39:46;;;;;;;106.20;64.97;;;;;;;6.52;86.84;99244.09;5074219;28;20249;-72
2021/12/27 08:42:13;;;;;;;105.67;64.57;;;;;;;6.44;86.88;99244.16;5094533;28;20191;-72
2021/12/27 08:44:39;;;;;;;100.10;64.13;;;;;;;6.51;88.15;99253.03;5095792;28;20197;-71
2021/12/27 08:47:08;;;;;;;112.70;66.80;;;;;;;6.71;87.32;99254.19;5096215;28;20271;-71
2021/12/27 08:49:35;;;;;;;107.07;67.67;;;;;;;6.80;86.60;99237.28;5095228;28;20255;-70
2021/12/27 08:52:01;;;;;;;103.17;66.20;;;;;;;6.95;86.48;99240.78;5086553;28;20206;-71
2021/12/27 08:54:28;;;;;;;106.03;63.40;;;;;;;6.75;86.41;99215.91;5095329;28;20204;-71
2021/12/27 08:56:56;;;;;;;78.50;50.87;;;;;;;6.83;86.98;99242.22;5095468;28;20224;-71
2021/12/27 08:59:23;;;;;;;92.50;56.40;;;;;;;6.95;86.74;99235.50;5095508;28;20195;-69
2021/12/27 09:01:50;;;;;;;90.30;55.47;;;;;;;6.92;86.15;99234.06;5089097;28;20195;-69
2021/12/27 09:04:16;;;;;;;85.43;53.63;;;;;;;7.14;86.48;99232.38;5090312;28;20200;-69
2021/12/27 09:06:43;;;;;;;100.20;60.30;;;;;;;7.25;85.64;99226.63;5100023;28;20199;-71
2021/12/27 09:09:10;;;;;;;92.63;59.33;;;;;;;7.42;85.23;99228.06;5098587;28;20290;-70
2021/12/27 09:11:36;;;;;;;92.87;58.73;;;;;;;7.39;83.97;99223.97;5115988;28;20235;-72
2021/12/27 09:14:05;;;;;;;87.70;54.73;;;;;;;7.41;84.31;99210.59;5116083;28;20190;-73
2021/12/27 09:16:32;;;;;;;94.73;59.70;;;;;;;7.68;84.15;99220.53;5116032;28;20291;-72
2021/12/27 09:18:59;;;;;;;95.87;59.63;;;;;;;7.86;83.39;99231.50;5108077;27;21580;-69
2021/12/27 09:21:26;;;;;;;100.70;62.53;;;;;;;8.03;83.12;99248.78;5092994;28;20199;-72
2021/12/27 09:23:53;;;;;;;97.57;60.97;;;;;;;8.10;82.23;99229.38;5093099;28;20230;-72
2021/12/27 09:26:19;;;;;;;92.43;58.37;;;;;;;8.14;81.60;99219.22;5088610;28;20207;-72
2021/12/27 09:28:46;;;;;;;91.20;59.73;;;;;;;8.16;81.12;99225.13;5078961;28;20196;-72
2021/12/27 09:31:14;;;;;;;94.30;58.37;;;;;;;8.18;80.87;99225.78;5094121;28;20199;-73
2021/12/27 09:33:41;;;;;;;98.47;59.43;;;;;;;8.11;81.35;99238.09;5089671;28;20671;-71
2021/12/27 09:36:08;;;;;;;101.53;62.23;;;;;;;8.12;80.89;99215.94;5070056;28;20285;-71
2021/12/27 09:38:35;;;;;;;113.13;66.80;;;;;;;8.11;81.21;99209.84;5069301;28;20245;-71
2021/12/27 09:41:02;;;;;;;108.80;64.17;;;;;;;8.08;81.68;99209.41;5079681;28;20342;-72
2021/12/27 09:43:29;;;;;;;96.60;63.33;;;;;;;8.05;81.68;99201.84;5091233;28;20655;-73
2021/12/27 09:45:56;;;;;;;91.30;57.83;;;;;;;8.05;81.78;99207.13;5091094;28;20719;-73
2021/12/27 09:48:24;;;;;;;78.93;51.77;;;;;;;7.95;81.93;99209.22;5091358;28;20191;-73
2021/12/27 09:50:55;;;;;;;84.30;50.77;;;;;;;7.84;83.46;99207.09;5087654;28;20671;-72
2021/12/27 09:53:22;;;;;;;70.10;47.00;;;;;;;7.87;83.35;99206.69;5077422;28;20647;-73
2021/12/27 09:55:49;;;;;;;81.47;48.17;;;;;;;7.82;83.59;99195.88;5085014;28;20224;-75
2021/12/27 09:58:16;;;;;;;73.80;47.60;;;;;;;7.77;83.67;99185.03;5072472;28;20626;-71
2021/12/27 10:00:43;;;;;;;74.63;47.70;;;;;;;7.68;83.50;99183.50;5072582;28;20255;-71
2021/12/27 10:03:10;;;;;;;76.80;47.43;;;;;;;7.69;84.06;99190.44;5073097;28;20263;-70
2021/12/27 10:05:39;;;;;;;75.70;47.07;;;;;;;7.71;83.97;99196.34;5073787;28;20196;-74
2021/12/27 10:08:06;;;;;;;67.60;46.77;;;;;;;7.68;83.37;99179.03;5073527;28;20640;-75
2021/12/27 10:10:35;;;;;;;71.23;45.60;;;;;;;7.63;83.14;99188.53;5084096;28;20291;-72
2021/12/27 10:13:02;;;;;;;68.77;43.20;;;;;;;7.26;84.47;99178.91;5077597;28;20187;-70
2021/12/27 10:15:35;;;;;;;67.70;44.40;;;;;;;7.24;86.45;99180.09;5092177;28;20228;-72
2021/12/27 10:18:09;;;;;;;73.43;47.10;;;;;;;7.39;85.25;99175.63;5078830;28;20288;-72
2021/12/27 10:20:37;;;;;;;68.17;45.93;;;;;;;7.42;85.45;99167.31;5069302;28;20179;-73
2021/12/27 10:23:04;;;;;;;66.63;44.20;;;;;;;7.44;85.73;99178.53;5068781;28;20192;-73
2021/12/27 10:25:32;;;;;;;65.60;43.63;;;;;;;7.25;85.39;99158.78;5072291;28;20246;-73
2021/12/27 10:28:00;;;;;;;63.40;43.07;;;;;;;7.37;86.09;99156.47;5084229;28;20190;-75
2021/12/27 10:30:29;;;;;;;67.47;44.40;;;;;;;7.41;85.70;99152.47;5088694;28;20244;-72
2021/12/27 10:33:06;;;;;;;67.00;44.13;;;;;;;7.45;85.20;99144.00;5089496;28;20187;-73
2021/12/27 10:35:40;;;;;;;65.47;44.03;;;;;;;7.41;85.22;99147.19;5088461;28;20187;-75
2021/12/27 10:38:18;;;;;;;61.30;40.23;;;;;;;7.46;85.71;99152.72;5085377;28;20248;-72
2021/12/27 10:40:56;;;;;;;66.30;40.50;;;;;;;7.42;85.73;99140.88;5082938;28;20196;-73
2021/12/27 10:43:38;;;;;;;57.67;38.10;;;;;;;7.55;85.38;99133.94;5068440;28;20278;-70
2021/12/27 10:46:06;;;;;;;52.40;36.03;;;;;;;7.64;84.98;99137.31;5071878;28;20198;-70
2021/12/27 10:48:35;;;;;;;58.70;39.33;;;;;;;7.80;84.34;99132.59;5071364;28;20199;-73
2021/12/27 10:51:03;;;;;;;51.23;35.27;;;;;;;7.93;84.23;99126.66;5091183;28;20257;-70
2021/12/27 10:53:43;;;;;;;56.60;38.70;;;;;;;8.06;82.89;99129.41;5112937;28;20247;-70
2021/12/27 10:56:10;;;;;;;56.63;39.90;;;;;;;8.01;82.55;99113.31;5112604;28;20260;-70
2021/12/27 10:58:38;;;;;;;61.00;40.67;;;;;;;7.97;82.97;99114.69;5112778;28;20202;-72
2021/12/27 11:01:08;;;;;;;56.87;38.83;;;;;;;7.90;83.34;99121.72;5112057;28;20654;-70
2021/12/27 11:03:37;;;;;;;60.10;38.97;;;;;;;7.63;84.03;99102.13;5111691;28;20201;-73
2021/12/27 11:06:08;;;;;;;55.17;36.77;;;;;;;7.77;84.10;99117.13;5082266;28;20195;-70
2021/12/27 11:08:38;;;;;;;54.50;37.70;;;;;;;7.78;84.07;99107.34;5077885;28;20183;-77
2021/12/27 11:11:05;;;;;;;57.33;36.20;;;;;;;7.83;84.39;99115.53;5090403;28;20566;-75
2021/12/27 11:13:33;;;;;;;61.80;39.87;;;;;;;7.76;84.67;99106.75;5079489;28;20195;-74
2021/12/27 11:16:00;;;;;;;58.30;37.03;;;;;;;7.82;84.13;99095.41;5070534;28;20749;-72
2021/12/27 11:18:27;;;;;;;54.60;37.47;;;;;;;7.73;83.99;99083.31;5070693;28;20238;-75
2021/12/27 11:20:56;;;;;;;63.47;38.83;;;;;;;7.83;84.64;99097.03;5072596;28;20249;-72
2021/12/27 11:23:27;;;;;;;54.67;37.37;;;;;;;7.88;84.66;99099.97;5090840;28;20250;-72